createdAt,value
2018-06-20T00:00:57.925Z,16.37
2018-06-20T00:03:30.874Z,16.37
2018-06-20T00:06:08.199Z,16.44
2018-06-20T00:08:57.167Z,16.47
2018-06-20T00:11:30.023Z,16.49
2018-06-20T00:14:01.614Z,16.55
2018-06-20T00:16:39.333Z,16.57
2018-06-20T00:19:24.103Z,16.48
2018-06-20T00:21:57.595Z,16.43
2018-06-20T00:24:34.129Z,16.42
2018-06-20T00:27:04.595Z,16.50
2018-06-20T00:29:35.399Z,16.47
2018-06-20T00:32:06.908Z,16.45
2018-06-20T00:34:37.483Z,16.39
2018-06-20T00:37:08.552Z,16.38
2018-06-20T00:39:40.084Z,16.36
2018-06-20T00:42:16.465Z,16.36
2018-06-20T00:44:57.419Z,16.33
2018-06-20T00:47:34.737Z,16.27
2018-06-20T00:50:10.978Z,16.22
2018-06-20T00:52:54.587Z,16.18
2018-06-20T00:55:42.538Z,16.16
2018-06-20T00:58:22.725Z,16.24
2018-06-20T01:01:03.754Z,16.24
2018-06-20T01:03:36.219Z,16.20
2018-06-20T01:06:07.386Z,16.14
2018-06-20T01:08:39.627Z,16.10
2018-06-20T01:11:12.539Z,16.04
2018-06-20T01:13:43.401Z,16.00
2018-06-20T01:16:21.020Z,16.00
2018-06-20T01:19:03.526Z,15.99
2018-06-20T01:21:38.914Z,15.97
2018-06-20T01:24:13.410Z,15.95
2018-06-20T01:26:56.879Z,15.98
2018-06-20T01:29:32.666Z,16.01
2018-06-20T01:32:05.105Z,16.01
2018-06-20T01:34:43.154Z,15.99
2018-06-20T01:37:20.002Z,15.93
2018-06-20T01:39:52.595Z,15.85
2018-06-20T01:42:24.060Z,15.86
2018-06-20T01:44:57.842Z,15.82
2018-06-20T01:47:28.386Z,15.77
2018-06-20T01:50:06.596Z,15.70
2018-06-20T01:52:38.215Z,15.65
2018-06-20T01:55:13.478Z,15.62
2018-06-20T01:58:04.105Z,15.58
2018-06-20T02:03:30.198Z,15.55
2018-06-20T02:06:12.953Z,15.54
2018-06-20T02:08:46.729Z,15.54
2018-06-20T02:11:23.383Z,15.53
2018-06-20T02:13:54.954Z,15.52
2018-06-20T02:16:31.685Z,15.43
2018-06-20T02:19:09.019Z,15.35
2018-06-20T02:21:42.078Z,15.27
2018-06-20T02:24:22.350Z,15.23
2018-06-20T02:26:54.975Z,15.24
2018-06-20T02:29:29.255Z,15.31
2018-06-20T02:32:23.437Z,15.38
2018-06-20T02:34:56.015Z,15.41
2018-06-20T02:37:26.686Z,15.47
2018-06-20T02:39:59.227Z,15.49
2018-06-20T02:42:37.562Z,15.58
2018-06-20T02:45:12.465Z,15.57
2018-06-20T02:47:44.160Z,15.53
2018-06-20T02:50:17.792Z,15.51
2018-06-20T02:52:54.533Z,15.45
2018-06-20T02:55:26.688Z,15.32
2018-06-20T02:58:08.063Z,15.23
2018-06-20T03:00:42.191Z,15.07
2018-06-20T03:03:24.726Z,15.04
2018-06-20T03:06:01.713Z,15.09
2018-06-20T03:08:39.076Z,15.11
2018-06-20T03:11:09.576Z,15.11
2018-06-20T03:13:40.041Z,15.05
2018-06-20T03:16:14.002Z,15.07
2018-06-20T03:18:46.250Z,15.06
2018-06-20T03:21:17.133Z,15.12
2018-06-20T03:23:48.812Z,15.17
2018-06-20T03:26:19.609Z,15.19
2018-06-20T03:28:49.968Z,15.16
2018-06-20T03:31:27.230Z,15.07
2018-06-20T03:34:07.213Z,15.03
2018-06-20T03:36:42.831Z,14.98
2018-06-20T03:39:14.791Z,15.02
2018-06-20T03:42:09.579Z,15.02
2018-06-20T03:44:41.130Z,15.03
2018-06-20T03:47:12.671Z,15.14
2018-06-20T03:49:43.186Z,15.17
2018-06-20T03:52:19.356Z,15.20
2018-06-20T03:54:55.398Z,15.21
2018-06-20T03:57:30.685Z,15.20
2018-06-20T04:00:05.344Z,15.27
2018-06-20T04:02:36.042Z,15.31
2018-06-20T04:05:13.346Z,15.36
2018-06-20T04:08:08.630Z,15.42
2018-06-20T04:10:40.828Z,15.41
2018-06-20T04:13:13.892Z,15.43
2018-06-20T04:15:51.036Z,15.50
2018-06-20T04:18:38.415Z,15.53
2018-06-20T04:21:12.470Z,15.57
2018-06-20T04:23:53.115Z,15.58
2018-06-20T04:26:39.920Z,15.56
2018-06-20T04:29:13.681Z,15.63
2018-06-20T04:32:03.314Z,15.74
2018-06-20T04:34:39.650Z,15.92
2018-06-20T04:37:21.964Z,16.21
2018-06-20T04:39:52.569Z,16.48
2018-06-20T04:42:26.942Z,16.81
2018-06-20T04:45:00.482Z,17.29
2018-06-20T04:47:34.748Z,17.77
2018-06-20T04:50:23.215Z,18.15
2018-06-20T04:52:53.912Z,18.65
2018-06-20T04:55:33.655Z,18.96
2018-06-20T04:58:13.916Z,19.22
2018-06-20T05:00:49.830Z,19.52
2018-06-20T05:03:44.791Z,19.50
2018-06-20T05:06:16.743Z,19.50
2018-06-20T05:08:53.527Z,19.63
2018-06-20T05:11:25.943Z,19.78
2018-06-20T05:14:07.386Z,20.03
2018-06-20T05:16:44.223Z,20.29
2018-06-20T05:19:24.408Z,20.54
2018-06-20T05:22:01.163Z,20.83
2018-06-20T05:24:41.960Z,21.18
2018-06-20T05:27:22.226Z,21.43
2018-06-20T05:29:59.435Z,21.84
2018-06-20T05:32:33.594Z,22.23
2018-06-20T05:35:07.837Z,22.95
2018-06-20T05:37:40.436Z,23.67
2018-06-20T05:40:10.991Z,25.00
2018-06-20T05:42:41.538Z,26.83
2018-06-20T05:48:25.163Z,30.27
2018-06-20T05:50:59.859Z,31.32
2018-06-20T05:53:32.282Z,32.18
2018-06-20T05:56:09.117Z,31.36
2018-06-20T05:58:55.689Z,32.38
2018-06-20T06:01:38.150Z,31.58
2018-06-20T06:04:14.350Z,30.81
2018-06-20T06:06:51.920Z,31.39
2018-06-20T06:09:23.246Z,31.99
2018-06-20T06:11:57.899Z,32.78
2018-06-20T06:14:29.411Z,32.40
2018-06-20T06:17:12.670Z,33.38
2018-06-20T06:19:54.735Z,33.98
2018-06-20T06:22:25.383Z,34.57
2018-06-20T06:25:00.267Z,35.35
2018-06-20T06:27:30.773Z,35.15
2018-06-20T06:30:01.639Z,35.32
2018-06-20T06:32:33.219Z,34.34
2018-06-20T06:35:07.510Z,32.28
2018-06-20T06:37:38.397Z,32.93
2018-06-20T06:40:09.840Z,31.06
2018-06-20T06:42:40.790Z,33.08
2018-06-20T06:45:11.358Z,32.20
2018-06-20T06:47:42.946Z,32.39
2018-06-20T06:50:16.863Z,34.39
2018-06-20T06:52:49.327Z,34.86
2018-06-20T06:55:30.426Z,34.28
2018-06-20T06:58:06.045Z,34.84
2018-06-20T07:00:36.451Z,34.38
2018-06-20T07:03:10.495Z,34.91
2018-06-20T07:05:41.183Z,34.84
2018-06-20T07:08:13.949Z,33.33
2018-06-20T07:10:51.732Z,31.81
2018-06-20T07:13:24.411Z,33.10
2018-06-20T07:15:54.733Z,32.66
2018-06-20T07:18:25.124Z,32.86
2018-06-20T07:20:56.733Z,33.61
2018-06-20T07:23:27.329Z,31.77
2018-06-20T07:26:08.160Z,31.49
2018-06-20T07:28:44.986Z,32.62
2018-06-20T07:31:19.896Z,33.35
2018-06-20T07:33:56.761Z,33.05
2018-06-20T07:36:38.850Z,33.52
2018-06-20T07:39:09.602Z,33.81
2018-06-20T07:41:54.877Z,34.09
2018-06-20T07:44:33.691Z,34.21
2018-06-20T07:47:05.321Z,33.02
2018-06-20T07:49:41.711Z,33.81
2018-06-20T07:52:25.057Z,33.58
2018-06-20T07:55:06.032Z,33.93
2018-06-20T07:57:42.358Z,32.66
2018-06-20T08:00:17.646Z,34.08
2018-06-20T08:03:09.590Z,32.64
2018-06-20T08:05:49.531Z,33.00
2018-06-20T08:08:25.236Z,34.59
2018-06-20T08:11:01.773Z,33.99
2018-06-20T08:13:38.830Z,31.56
2018-06-20T08:16:25.231Z,29.62
2018-06-20T08:19:13.968Z,28.78
2018-06-20T08:21:55.156Z,29.87
2018-06-20T08:24:26.987Z,31.11
2018-06-20T08:27:06.893Z,31.51
2018-06-20T08:29:37.731Z,30.91
2018-06-20T08:32:07.626Z,31.41
2018-06-20T08:34:39.217Z,29.76
2018-06-20T08:37:13.378Z,30.61
2018-06-20T08:39:45.207Z,32.36
2018-06-20T08:42:20.544Z,34.01
2018-06-20T08:44:56.685Z,31.50
2018-06-20T08:47:33.167Z,31.17
2018-06-20T08:50:04.592Z,33.89
2018-06-20T08:52:41.241Z,35.85
2018-06-20T08:55:11.836Z,36.50
2018-06-20T08:57:44.562Z,36.77
2018-06-20T09:00:20.963Z,37.39
2018-06-20T09:02:50.955Z,37.20
2018-06-20T09:05:32.591Z,37.95
2018-06-20T09:08:11.262Z,37.87
2018-06-20T09:10:58.621Z,37.01
2018-06-20T09:13:43.258Z,38.08
2018-06-20T09:16:28.148Z,36.90
2018-06-20T09:19:07.231Z,34.96
2018-06-20T09:21:39.476Z,34.71
2018-06-20T09:24:12.026Z,35.17
2018-06-20T09:26:45.873Z,33.55
2018-06-20T09:29:34.788Z,33.73
2018-06-20T09:32:05.231Z,36.11
2018-06-20T09:34:41.435Z,36.07
2018-06-20T09:37:15.646Z,36.53
2018-06-20T09:39:49.235Z,37.12
2018-06-20T09:42:21.003Z,37.09
2018-06-20T09:44:59.616Z,38.36
2018-06-20T09:47:33.546Z,37.21
2018-06-20T09:50:21.734Z,35.43
2018-06-20T09:53:06.746Z,36.99
2018-06-20T09:55:37.703Z,36.87
2018-06-20T09:58:20.382Z,35.49
2018-06-20T10:00:58.091Z,33.83
2018-06-20T10:03:35.684Z,35.74
2018-06-20T10:06:18.630Z,36.08
2018-06-20T10:09:04.840Z,34.38
2018-06-20T10:11:42.356Z,32.54
2018-06-20T10:14:16.521Z,32.73
2018-06-20T10:16:47.996Z,33.22
2018-06-20T10:19:27.765Z,32.75
2018-06-20T10:22:04.338Z,34.11
2018-06-20T10:24:46.233Z,35.00
2018-06-20T10:27:18.793Z,36.70
2018-06-20T10:29:58.981Z,37.38
2018-06-20T10:32:32.306Z,36.11
2018-06-20T10:35:32.598Z,36.85
2018-06-20T10:38:03.307Z,36.40
2018-06-20T10:40:33.866Z,38.62
2018-06-20T10:43:04.291Z,36.00
2018-06-20T10:45:39.646Z,39.41
2018-06-20T10:48:16.766Z,36.64
2018-06-20T10:50:52.142Z,38.35
2018-06-20T10:53:27.084Z,39.62
2018-06-20T10:56:18.495Z,38.47
2018-06-20T10:59:06.627Z,38.16
2018-06-20T11:01:50.173Z,37.23
2018-06-20T11:04:29.214Z,38.55
2018-06-20T11:07:06.407Z,38.35
2018-06-20T11:09:43.321Z,35.71
2018-06-20T11:12:19.090Z,34.53
2018-06-20T11:14:49.774Z,34.14
2018-06-20T11:17:27.599Z,36.25
2018-06-20T11:20:14.448Z,38.49
2018-06-20T11:25:48.428Z,41.48
2018-06-20T11:28:22.854Z,35.15
2018-06-20T11:30:59.299Z,37.73
2018-06-20T11:33:42.061Z,38.35
2018-06-20T11:36:30.248Z,37.36
2018-06-20T11:39:11.713Z,37.10
2018-06-20T11:41:48.835Z,38.96
2018-06-20T11:44:22.971Z,38.34
2018-06-20T11:47:05.183Z,36.35
2018-06-20T11:49:39.400Z,36.96
2018-06-20T11:52:17.166Z,36.67
2018-06-20T11:55:11.491Z,37.22
2018-06-20T11:57:49.922Z,34.58
2018-06-20T12:00:31.031Z,36.23
2018-06-20T12:03:12.149Z,37.90
2018-06-20T12:05:53.954Z,39.43
2018-06-20T12:08:32.075Z,39.10
2018-06-20T12:11:26.229Z,38.39
2018-06-20T12:14:05.666Z,41.05
2018-06-20T12:16:37.255Z,40.86
2018-06-20T12:19:13.716Z,39.82
2018-06-20T12:21:49.719Z,37.62
2018-06-20T12:24:31.254Z,36.37
2018-06-20T12:27:24.593Z,38.82
2018-06-20T12:30:01.447Z,39.87
2018-06-20T12:32:37.090Z,38.88
2018-06-20T12:35:13.283Z,39.57
2018-06-20T12:37:51.162Z,40.77
2018-06-20T12:40:27.449Z,41.40
2018-06-20T12:43:09.522Z,39.97
2018-06-20T12:45:41.385Z,38.98
2018-06-20T12:48:14.084Z,43.11
2018-06-20T12:50:45.422Z,43.49
2018-06-20T12:53:16.815Z,39.11
2018-06-20T12:55:47.397Z,38.19
2018-06-20T12:58:19.020Z,38.06
2018-06-20T13:00:49.839Z,36.35
2018-06-20T13:03:22.886Z,37.65
2018-06-20T13:05:54.472Z,37.08
2018-06-20T13:08:25.190Z,38.84
2018-06-20T13:10:56.454Z,39.03
2018-06-20T13:13:27.168Z,38.72
2018-06-20T13:15:59.778Z,39.79
2018-06-20T13:18:31.613Z,39.29
2018-06-20T13:21:02.926Z,39.91
2018-06-20T13:23:36.955Z,39.63
2018-06-20T13:26:07.557Z,42.68
2018-06-20T13:28:41.442Z,43.83
2018-06-20T13:31:18.268Z,44.49
2018-06-20T13:33:57.878Z,44.40
2018-06-20T13:37:03.678Z,42.39
2018-06-20T13:39:49.015Z,39.06
2018-06-20T13:42:43.035Z,39.16
2018-06-20T13:45:28.830Z,39.41
2018-06-20T13:48:32.192Z,39.17
2018-06-20T13:51:07.263Z,42.17
2018-06-20T13:53:46.563Z,43.32
2018-06-20T13:56:23.565Z,42.15
2018-06-20T13:58:56.474Z,41.24
2018-06-20T14:02:01.539Z,41.41
2018-06-20T14:04:34.681Z,42.04
2018-06-20T14:07:12.251Z,39.95
2018-06-20T14:10:05.886Z,40.87
2018-06-20T14:12:52.787Z,42.98
2018-06-20T14:16:48.557Z,43.63
2018-06-20T14:19:40.734Z,46.28
2018-06-20T14:22:28.761Z,46.09
2018-06-20T14:25:08.315Z,46.11
2018-06-20T14:27:40.330Z,40.12
2018-06-20T14:30:47.758Z,40.04
2018-06-20T14:33:27.853Z,37.96
2018-06-20T14:36:13.573Z,39.24
2018-06-20T14:38:57.511Z,43.10
2018-06-20T14:42:10.702Z,41.35
2018-06-20T14:44:42.233Z,40.12
2018-06-20T14:47:18.179Z,40.01
2018-06-20T14:49:53.814Z,40.46
2018-06-20T14:52:26.346Z,40.61
2018-06-20T14:55:10.209Z,42.85
2018-06-20T14:57:44.803Z,45.49
2018-06-20T15:00:26.032Z,45.02
2018-06-20T15:02:59.935Z,46.80
2018-06-20T15:05:37.528Z,47.17
2018-06-20T15:08:13.251Z,47.80
2018-06-20T15:10:55.546Z,44.39
2018-06-20T15:13:41.893Z,43.09
2018-06-20T15:16:42.264Z,43.89
2018-06-20T15:19:13.317Z,44.36
2018-06-20T15:21:46.262Z,45.26
2018-06-20T15:24:17.511Z,46.36
2018-06-20T15:27:04.856Z,46.54
2018-06-20T15:29:51.427Z,43.22
2018-06-20T15:32:35.344Z,46.24
2018-06-20T15:35:11.702Z,46.08
2018-06-20T15:37:58.801Z,47.40
2018-06-20T15:40:36.323Z,47.69
2018-06-20T15:43:08.558Z,47.35
2018-06-20T15:45:49.227Z,45.59
2018-06-20T15:48:25.072Z,45.46
2018-06-20T15:50:59.236Z,45.32
2018-06-20T15:53:32.957Z,45.01
2018-06-20T15:56:03.625Z,46.43
2018-06-20T15:58:35.346Z,47.81
2018-06-20T16:01:12.889Z,47.53
2018-06-20T16:03:44.117Z,45.46
2018-06-20T16:06:18.247Z,44.07
2018-06-20T16:08:59.026Z,44.02
2018-06-20T16:12:00.115Z,45.18
2018-06-20T16:14:36.355Z,45.44
2018-06-20T16:17:11.785Z,45.91
2018-06-20T16:19:49.162Z,46.10
2018-06-20T16:22:25.857Z,45.69
2018-06-20T16:25:00.901Z,44.70
2018-06-20T16:27:36.880Z,43.31
2018-06-20T16:30:12.335Z,39.00
2018-06-20T16:32:42.527Z,41.67
2018-06-20T16:35:29.363Z,42.83
2018-06-20T16:38:06.466Z,43.63
2018-06-20T16:40:46.404Z,42.40
2018-06-20T16:43:22.388Z,40.46
2018-06-20T16:45:57.661Z,38.65
2018-06-20T16:48:34.565Z,39.32
2018-06-20T16:51:08.577Z,38.94
2018-06-20T16:53:41.809Z,37.33
2018-06-20T16:56:19.158Z,36.64
2018-06-20T16:58:59.941Z,37.45
2018-06-20T17:01:42.110Z,37.79
2018-06-20T17:04:13.515Z,37.74
2018-06-20T17:06:45.580Z,38.69
2018-06-20T17:09:18.054Z,38.54
2018-06-20T17:11:53.503Z,39.94
2018-06-20T17:14:32.610Z,39.37
2018-06-20T17:17:11.381Z,38.90
2018-06-20T17:19:47.546Z,39.16
2018-06-20T17:22:25.094Z,37.33
2018-06-20T17:25:02.037Z,36.54
2018-06-20T17:27:39.894Z,36.63
2018-06-20T17:30:15.334Z,37.16
2018-06-20T17:32:47.471Z,38.22
2018-06-20T17:35:21.180Z,39.32
2018-06-20T17:38:02.681Z,39.93
2018-06-20T17:40:42.460Z,40.79
2018-06-20T17:43:33.509Z,40.63
2018-06-20T17:46:04.808Z,41.02
2018-06-20T17:48:43.044Z,41.39
2018-06-20T17:51:16.965Z,41.44
2018-06-20T17:53:49.474Z,41.52
2018-06-20T17:56:23.116Z,40.00
2018-06-20T17:58:57.036Z,39.83
2018-06-20T18:01:28.693Z,40.64
2018-06-20T18:04:00.371Z,40.39
2018-06-20T18:06:38.116Z,39.57
2018-06-20T18:09:17.099Z,39.82
2018-06-20T18:11:55.773Z,39.90
2018-06-20T18:14:31.461Z,39.06
2018-06-20T18:17:09.161Z,37.63
2018-06-20T18:19:39.265Z,36.38
2018-06-20T18:22:13.037Z,35.19
2018-06-20T18:24:49.292Z,34.01
2018-06-20T18:27:26.432Z,34.55
2018-06-20T18:29:57.172Z,35.33
2018-06-20T18:32:36.394Z,35.20
2018-06-20T18:35:12.985Z,35.28
2018-06-20T18:37:58.869Z,34.81
2018-06-20T18:40:33.331Z,33.59
2018-06-20T18:43:04.622Z,32.39
2018-06-20T18:46:00.880Z,30.54
2018-06-20T18:48:34.947Z,29.44
2018-06-20T18:51:07.191Z,28.36
2018-06-20T18:53:43.994Z,27.81
2018-06-20T18:56:27.090Z,27.41
2018-06-20T19:00:09.057Z,26.95
2018-06-20T19:03:03.047Z,26.43
2018-06-20T19:06:16.216Z,26.22
2018-06-20T19:08:51.570Z,25.86
2018-06-20T19:12:22.088Z,25.69
2018-06-20T19:15:02.583Z,25.39
2018-06-20T19:17:59.971Z,25.19
2018-06-20T19:20:36.173Z,24.97
2018-06-20T19:23:11.367Z,24.84
2018-06-20T19:25:55.044Z,24.77
2018-06-20T19:28:33.092Z,24.62
2018-06-20T19:31:06.043Z,24.48
2018-06-20T19:33:45.736Z,24.39
2018-06-20T19:36:26.522Z,24.31
2018-06-20T19:39:00.608Z,24.18
2018-06-20T19:41:37.826Z,23.97
2018-06-20T19:44:29.644Z,23.85
2018-06-20T19:47:01.180Z,23.73
2018-06-20T19:49:36.138Z,23.61
2018-06-20T19:52:08.722Z,23.50
2018-06-20T19:54:46.032Z,23.45
2018-06-20T19:57:17.947Z,23.36
2018-06-20T19:59:49.406Z,23.33
2018-06-20T20:02:29.686Z,23.22
2018-06-20T20:05:07.398Z,23.02
2018-06-20T20:07:54.870Z,22.84
2018-06-20T20:10:38.018Z,22.72
2018-06-20T20:13:11.731Z,22.63
2018-06-20T20:15:52.880Z,22.49
2018-06-20T20:18:39.477Z,22.38
2018-06-20T20:21:18.005Z,22.30
2018-06-20T20:24:04.115Z,22.19
2018-06-20T20:26:35.607Z,22.08
2018-06-20T20:29:23.798Z,22.00
2018-06-20T20:31:59.419Z,21.86
2018-06-20T20:34:43.087Z,21.80
2018-06-20T20:37:17.096Z,21.71
2018-06-20T20:39:47.958Z,21.62
2018-06-20T20:42:30.044Z,21.57
2018-06-20T20:45:02.459Z,21.49
2018-06-20T20:47:45.859Z,21.43
2018-06-20T20:50:30.609Z,21.37
2018-06-20T20:53:12.353Z,21.32
2018-06-20T20:55:46.915Z,21.25
2018-06-20T20:58:22.631Z,21.23
2018-06-20T21:00:53.397Z,21.14
2018-06-20T21:03:30.250Z,21.09
2018-06-20T21:06:01.156Z,21.00
2018-06-20T21:08:42.083Z,20.88
2018-06-20T21:11:14.451Z,20.80
2018-06-20T21:13:46.430Z,20.73
2018-06-20T21:16:18.153Z,20.69
2018-06-20T21:18:49.086Z,20.66
2018-06-20T21:21:20.160Z,20.64
2018-06-20T21:23:52.811Z,20.61
2018-06-20T21:26:23.446Z,20.56
2018-06-20T21:29:04.695Z,20.56
2018-06-20T21:32:00.122Z,20.51
2018-06-20T21:34:37.079Z,20.45
2018-06-20T21:37:10.130Z,20.40
2018-06-20T21:39:48.920Z,20.33
2018-06-20T21:42:28.653Z,20.33
2018-06-20T21:45:11.710Z,20.26
2018-06-20T21:47:51.007Z,20.24
2018-06-20T21:50:23.722Z,20.20
2018-06-20T21:52:59.547Z,20.14
2018-06-20T21:55:49.556Z,20.10
2018-06-20T21:58:37.022Z,20.06
2018-06-20T22:01:32.077Z,20.00
2018-06-20T22:04:21.150Z,19.97
2018-06-20T22:06:51.649Z,19.95
2018-06-20T22:09:24.165Z,19.93
2018-06-20T22:11:58.039Z,19.91
2018-06-20T22:14:35.982Z,19.86
2018-06-20T22:17:06.748Z,19.84
2018-06-20T22:19:40.357Z,19.79
2018-06-20T22:22:11.835Z,19.81
2018-06-20T22:24:43.722Z,19.76
2018-06-20T22:27:26.047Z,19.73
2018-06-20T22:30:09.043Z,19.69
2018-06-20T22:32:40.489Z,19.66
2018-06-20T22:35:14.772Z,19.65
2018-06-20T22:37:46.453Z,19.63
2018-06-20T22:40:22.683Z,19.62
2018-06-20T22:43:06.348Z,19.58
2018-06-20T22:45:42.679Z,19.58
2018-06-20T22:48:17.244Z,19.53
2018-06-20T22:50:55.182Z,19.49
2018-06-20T22:53:29.463Z,19.42
2018-06-20T22:55:59.893Z,19.38
2018-06-20T22:58:36.731Z,19.34
2018-06-20T23:01:13.147Z,19.28
2018-06-20T23:03:44.548Z,19.27
2018-06-20T23:06:15.099Z,19.24
2018-06-20T23:08:47.719Z,19.17
2018-06-20T23:11:26.503Z,19.11
2018-06-20T23:14:04.146Z,19.09
2018-06-20T23:16:40.971Z,19.10
2018-06-20T23:19:21.311Z,19.08
2018-06-20T23:21:52.368Z,19.07
2018-06-20T23:24:23.750Z,19.03
2018-06-20T23:26:54.348Z,19.04
2018-06-20T23:29:34.453Z,19.00
2018-06-20T23:32:10.260Z,18.93
2018-06-20T23:34:42.592Z,18.91
2018-06-20T23:37:13.002Z,18.94
2018-06-20T23:39:45.481Z,18.91
2018-06-20T23:42:17.292Z,18.89
2018-06-20T23:44:47.757Z,18.84
2018-06-20T23:47:18.381Z,18.84
2018-06-20T23:49:49.556Z,18.84
2018-06-20T23:52:21.025Z,18.77
2018-06-20T23:54:59.903Z,18.67
2018-06-20T23:57:30.413Z,18.55
